sensor_id;sensor_type;location;lat;lon;timestamp;temperature;humidity
12833;DHT22;6483;51.310;4.462;2023-02-28T00:01:32;-2.10;99.90
12833;DHT22;6483;51.310;4.462;2023-02-28T00:03:59;-2.10;99.90
12833;DHT22;6483;51.310;4.462;2023-02-28T00:06:25;-2.00;99.90
12833;DHT22;6483;51.310;4.462;2023-02-28T00:08:54;0.20;99.90
12833;DHT22;6483;51.310;4.462;2023-02-28T00:11:23;-1.10;99.90
12833;DHT22;6483;51.310;4.462;2023-02-28T00:13:48;-2.10;99.90
12833;DHT22;6483;51.310;4.462;2023-02-28T00:16:19;-2.10;99.90
12833;DHT22;6483;51.310;4.462;2023-02-28T00:18:46;-2.10;99.90
12833;DHT22;6483;51.310;4.462;2023-02-28T00:21:13;-0.80;99.90
12833;DHT22;6483;51.310;4.462;2023-02-28T00:23:39;-2.00;99.90
12833;DHT22;6483;51.310;4.462;2023-02-28T00:26:06;-0.70;99.90
12833;DHT22;6483;51.310;4.462;2023-02-28T00:28:32;-2.00;99.90
12833;DHT22;6483;51.310;4.462;2023-02-28T00:30:58;-1.90;99.90
12833;DHT22;6483;51.310;4.462;2023-02-28T00:33:25;0.50;99.90
12833;DHT22;6483;51.310;4.462;2023-02-28T00:36:01;0.60;99.90
12833;DHT22;6483;51.310;4.462;2023-02-28T00:38:27;-2.00;99.90
12833;DHT22;6483;51.310;4.462;2023-02-28T00:40:57;-2.10;99.90
12833;DHT22;6483;51.310;4.462;2023-02-28T00:43:23;-2.00;99.90
12833;DHT22;6483;51.310;4.462;2023-02-28T00:45:49;-2.00;99.90
12833;DHT22;6483;51.310;4.462;2023-02-28T00:48:17;-2.10;99.90
12833;DHT22;6483;51.310;4.462;2023-02-28T00:50:43;-2.00;99.90
12833;DHT22;6483;51.310;4.462;2023-02-28T00:53:09;-0.80;99.90
12833;DHT22;6483;51.310;4.462;2023-02-28T00:55:36;0.10;99.90
12833;DHT22;6483;51.310;4.462;2023-02-28T00:58:01;-0.50;99.90
12833;DHT22;6483;51.310;4.462;2023-02-28T01:00:27;0.20;99.90
12833;DHT22;6483;51.310;4.462;2023-02-28T01:02:53;0.10;99.90
12833;DHT22;6483;51.310;4.462;2023-02-28T01:05:19;-1.60;99.90
12833;DHT22;6483;51.310;4.462;2023-02-28T01:07:45;-2.10;99.90
12833;DHT22;6483;51.310;4.462;2023-02-28T01:10:12;-1.60;99.90
12833;DHT22;6483;51.310;4.462;2023-02-28T01:12:40;-1.40;99.90
12833;DHT22;6483;51.310;4.462;2023-02-28T01:15:06;-2.10;99.90
12833;DHT22;6483;51.310;4.462;2023-02-28T01:17:32;-2.10;99.90
12833;DHT22;6483;51.310;4.462;2023-02-28T01:19:58;0.20;99.90
12833;DHT22;6483;51.310;4.462;2023-02-28T01:22:24;-0.40;99.90
12833;DHT22;6483;51.310;4.462;2023-02-28T01:24:50;-1.40;99.90
12833;DHT22;6483;51.310;4.462;2023-02-28T01:27:19;-2.20;99.90
12833;DHT22;6483;51.310;4.462;2023-02-28T01:29:45;-2.20;99.90
12833;DHT22;6483;51.310;4.462;2023-02-28T01:32:11;-1.10;99.90
12833;DHT22;6483;51.310;4.462;2023-02-28T01:34:37;0.20;99.90
12833;DHT22;6483;51.310;4.462;2023-02-28T01:37:03;0.00;99.90
12833;DHT22;6483;51.310;4.462;2023-02-28T01:39:29;-1.40;99.90
12833;DHT22;6483;51.310;4.462;2023-02-28T01:41:54;-1.50;99.90
12833;DHT22;6483;51.310;4.462;2023-02-28T01:47:21;-2.30;99.90
12833;DHT22;6483;51.310;4.462;2023-02-28T01:49:48;-2.30;99.90
12833;DHT22;6483;51.310;4.462;2023-02-28T01:52:14;-2.40;99.90
12833;DHT22;6483;51.310;4.462;2023-02-28T01:54:47;-2.40;99.90
12833;DHT22;6483;51.310;4.462;2023-02-28T01:57:18;-2.40;99.90
12833;DHT22;6483;51.310;4.462;2023-02-28T01:59:56;-1.70;99.90
12833;DHT22;6483;51.310;4.462;2023-02-28T02:02:27;-2.40;99.90
12833;DHT22;6483;51.310;4.462;2023-02-28T02:05:08;-2.30;99.90
12833;DHT22;6483;51.310;4.462;2023-02-28T02:07:52;-2.40;99.90
12833;DHT22;6483;51.310;4.462;2023-02-28T02:10:24;-0.60;99.90
12833;DHT22;6483;51.310;4.462;2023-02-28T02:17:59;-1.70;99.90
12833;DHT22;6483;51.310;4.462;2023-02-28T02:26:33;-2.40;99.90
12833;DHT22;6483;51.310;4.462;2023-02-28T02:35:16;-2.40;99.90
12833;DHT22;6483;51.310;4.462;2023-02-28T02:37:52;-2.20;99.90
12833;DHT22;6483;51.310;4.462;2023-02-28T02:40:22;-2.40;99.90
12833;DHT22;6483;51.310;4.462;2023-02-28T02:42:52;-2.40;99.90
12833;DHT22;6483;51.310;4.462;2023-02-28T02:45:47;-1.50;99.90
12833;DHT22;6483;51.310;4.462;2023-02-28T02:48:17;0.30;99.90
12833;DHT22;6483;51.310;4.462;2023-02-28T02:50:49;-0.20;99.90
12833;DHT22;6483;51.310;4.462;2023-02-28T02:53:19;-1.70;99.90
12833;DHT22;6483;51.310;4.462;2023-02-28T02:55:50;1.10;99.90
12833;DHT22;6483;51.310;4.462;2023-02-28T02:58:22;-1.30;99.90
12833;DHT22;6483;51.310;4.462;2023-02-28T03:00:52;-0.60;99.90
12833;DHT22;6483;51.310;4.462;2023-02-28T03:03:21;-1.10;99.90
12833;DHT22;6483;51.310;4.462;2023-02-28T03:05:58;-0.20;99.90
12833;DHT22;6483;51.310;4.462;2023-02-28T03:08:26;-0.90;99.90
12833;DHT22;6483;51.310;4.462;2023-02-28T03:10:58;0.60;99.90
12833;DHT22;6483;51.310;4.462;2023-02-28T03:22:26;-0.30;99.90
12833;DHT22;6483;51.310;4.462;2023-02-28T03:33:45;0.70;99.90
12833;DHT22;6483;51.310;4.462;2023-02-28T03:36:24;0.20;99.90
12833;DHT22;6483;51.310;4.462;2023-02-28T03:39:15;0.20;99.90
12833;DHT22;6483;51.310;4.462;2023-02-28T03:44:25;0.30;99.90
12833;DHT22;6483;51.310;4.462;2023-02-28T03:47:17;0.40;99.90
12833;DHT22;6483;51.310;4.462;2023-02-28T03:53:00;0.60;99.90
12833;DHT22;6483;51.310;4.462;2023-02-28T03:55:32;0.70;99.90
12833;DHT22;6483;51.310;4.462;2023-02-28T04:04:23;0.90;99.90
12833;DHT22;6483;51.310;4.462;2023-02-28T04:06:52;0.90;99.90
12833;DHT22;6483;51.310;4.462;2023-02-28T04:09:25;1.00;99.90
12833;DHT22;6483;51.310;4.462;2023-02-28T04:11:55;1.10;99.90
12833;DHT22;6483;51.310;4.462;2023-02-28T04:14:27;1.10;99.90
12833;DHT22;6483;51.310;4.462;2023-02-28T04:16:52;1.10;99.90
12833;DHT22;6483;51.310;4.462;2023-02-28T04:19:21;1.20;99.90
12833;DHT22;6483;51.310;4.462;2023-02-28T04:21:52;1.30;99.90
12833;DHT22;6483;51.310;4.462;2023-02-28T04:24:38;1.30;99.90
12833;DHT22;6483;51.310;4.462;2023-02-28T04:27:09;1.30;99.90
12833;DHT22;6483;51.310;4.462;2023-02-28T04:29:51;1.30;99.90
12833;DHT22;6483;51.310;4.462;2023-02-28T04:32:17;1.30;99.90
12833;DHT22;6483;51.310;4.462;2023-02-28T04:34:43;1.50;99.90
12833;DHT22;6483;51.310;4.462;2023-02-28T04:37:08;1.30;99.90
12833;DHT22;6483;51.310;4.462;2023-02-28T04:39:40;1.40;99.90
12833;DHT22;6483;51.310;4.462;2023-02-28T04:42:07;1.40;99.90
12833;DHT22;6483;51.310;4.462;2023-02-28T04:44:33;1.40;99.90
12833;DHT22;6483;51.310;4.462;2023-02-28T04:46:59;1.50;99.90
12833;DHT22;6483;51.310;4.462;2023-02-28T04:49:25;3.00;99.90
12833;DHT22;6483;51.310;4.462;2023-02-28T04:51:53;1.50;99.90
12833;DHT22;6483;51.310;4.462;2023-02-28T04:54:21;1.50;99.90
12833;DHT22;6483;51.310;4.462;2023-02-28T04:56:50;1.60;99.90
12833;DHT22;6483;51.310;4.462;2023-02-28T04:59:16;1.70;99.90
12833;DHT22;6483;51.310;4.462;2023-02-28T05:01:46;1.60;99.90
12833;DHT22;6483;51.310;4.462;2023-02-28T05:04:15;1.60;99.90
12833;DHT22;6483;51.310;4.462;2023-02-28T05:06:42;1.60;99.90
12833;DHT22;6483;51.310;4.462;2023-02-28T05:09:11;1.70;99.90
12833;DHT22;6483;51.310;4.462;2023-02-28T05:11:43;1.70;99.90
12833;DHT22;6483;51.310;4.462;2023-02-28T05:14:13;1.80;99.90
12833;DHT22;6483;51.310;4.462;2023-02-28T05:16:45;2.90;99.90
12833;DHT22;6483;51.310;4.462;2023-02-28T05:19:11;1.90;99.90
12833;DHT22;6483;51.310;4.462;2023-02-28T05:21:53;1.90;99.90
12833;DHT22;6483;51.310;4.462;2023-02-28T05:24:19;1.90;99.90
12833;DHT22;6483;51.310;4.462;2023-02-28T05:26:49;1.90;99.90
12833;DHT22;6483;51.310;4.462;2023-02-28T05:29:18;1.90;99.90
12833;DHT22;6483;51.310;4.462;2023-02-28T05:31:47;1.80;99.90
12833;DHT22;6483;51.310;4.462;2023-02-28T05:34:13;2.70;99.90
12833;DHT22;6483;51.310;4.462;2023-02-28T05:36:43;2.70;99.90
12833;DHT22;6483;51.310;4.462;2023-02-28T05:39:13;2.80;99.90
12833;DHT22;6483;51.310;4.462;2023-02-28T05:41:43;2.00;99.90
12833;DHT22;6483;51.310;4.462;2023-02-28T05:44:10;2.00;99.90
12833;DHT22;6483;51.310;4.462;2023-02-28T05:46:36;2.00;99.90
12833;DHT22;6483;51.310;4.462;2023-02-28T05:49:03;2.60;99.90
12833;DHT22;6483;51.310;4.462;2023-02-28T05:51:29;1.90;99.90
12833;DHT22;6483;51.310;4.462;2023-02-28T05:53:59;1.90;99.90
12833;DHT22;6483;51.310;4.462;2023-02-28T05:56:24;2.00;99.90
12833;DHT22;6483;51.310;4.462;2023-02-28T05:58:50;2.00;99.90
12833;DHT22;6483;51.310;4.462;2023-02-28T06:01:58;2.00;99.90
12833;DHT22;6483;51.310;4.462;2023-02-28T06:04:20;2.10;99.90
12833;DHT22;6483;51.310;4.462;2023-02-28T06:06:49;2.10;99.90
12833;DHT22;6483;51.310;4.462;2023-02-28T06:09:18;2.10;99.90
12833;DHT22;6483;51.310;4.462;2023-02-28T06:11:47;2.10;99.90
12833;DHT22;6483;51.310;4.462;2023-02-28T06:14:17;2.20;99.90
12833;DHT22;6483;51.310;4.462;2023-02-28T06:16:47;2.10;99.90
12833;DHT22;6483;51.310;4.462;2023-02-28T06:19:14;2.10;99.90
12833;DHT22;6483;51.310;4.462;2023-02-28T06:21:41;2.10;99.90
12833;DHT22;6483;51.310;4.462;2023-02-28T06:24:12;2.10;99.90
12833;DHT22;6483;51.310;4.462;2023-02-28T06:26:37;2.10;99.90
12833;DHT22;6483;51.310;4.462;2023-02-28T06:29:03;2.20;99.90
12833;DHT22;6483;51.310;4.462;2023-02-28T06:31:35;2.10;99.90
12833;DHT22;6483;51.310;4.462;2023-02-28T06:34:04;2.10;99.90
12833;DHT22;6483;51.310;4.462;2023-02-28T06:36:30;2.10;99.90
12833;DHT22;6483;51.310;4.462;2023-02-28T06:38:56;2.30;99.90
12833;DHT22;6483;51.310;4.462;2023-02-28T06:41:29;2.20;99.90
12833;DHT22;6483;51.310;4.462;2023-02-28T06:43:55;2.20;99.90
12833;DHT22;6483;51.310;4.462;2023-02-28T06:46:21;2.20;99.90
12833;DHT22;6483;51.310;4.462;2023-02-28T06:48:48;2.20;99.90
12833;DHT22;6483;51.310;4.462;2023-02-28T06:51:19;2.20;99.90
12833;DHT22;6483;51.310;4.462;2023-02-28T06:53:48;2.30;99.90
12833;DHT22;6483;51.310;4.462;2023-02-28T06:56:17;2.40;99.90
12833;DHT22;6483;51.310;4.462;2023-02-28T06:58:49;2.40;99.90
12833;DHT22;6483;51.310;4.462;2023-02-28T07:01:19;2.60;99.90
12833;DHT22;6483;51.310;4.462;2023-02-28T07:03:47;2.60;99.90
12833;DHT22;6483;51.310;4.462;2023-02-28T07:06:21;2.50;99.90
12833;DHT22;6483;51.310;4.462;2023-02-28T07:08:54;2.60;99.90
12833;DHT22;6483;51.310;4.462;2023-02-28T07:11:21;2.60;99.90
12833;DHT22;6483;51.310;4.462;2023-02-28T07:13:49;3.30;99.90
12833;DHT22;6483;51.310;4.462;2023-02-28T07:16:14;2.70;99.90
12833;DHT22;6483;51.310;4.462;2023-02-28T07:18:40;2.70;99.90
12833;DHT22;6483;51.310;4.462;2023-02-28T07:21:08;3.70;99.90
12833;DHT22;6483;51.310;4.462;2023-02-28T07:23:35;2.90;99.90
12833;DHT22;6483;51.310;4.462;2023-02-28T07:26:10;2.90;99.90
12833;DHT22;6483;51.310;4.462;2023-02-28T07:28:37;2.90;99.90
12833;DHT22;6483;51.310;4.462;2023-02-28T07:31:07;2.90;99.90
12833;DHT22;6483;51.310;4.462;2023-02-28T07:33:36;2.90;99.90
12833;DHT22;6483;51.310;4.462;2023-02-28T07:36:16;3.00;99.90
12833;DHT22;6483;51.310;4.462;2023-02-28T07:38:45;3.20;99.90
12833;DHT22;6483;51.310;4.462;2023-02-28T07:41:12;3.30;99.90
12833;DHT22;6483;51.310;4.462;2023-02-28T07:43:38;3.30;99.90
12833;DHT22;6483;51.310;4.462;2023-02-28T07:46:09;3.40;99.90
12833;DHT22;6483;51.310;4.462;2023-02-28T07:48:35;3.50;99.90
12833;DHT22;6483;51.310;4.462;2023-02-28T07:51:04;3.60;99.90
12833;DHT22;6483;51.310;4.462;2023-02-28T07:53:29;3.70;99.90
12833;DHT22;6483;51.310;4.462;2023-02-28T07:55:57;3.80;99.90
12833;DHT22;6483;51.310;4.462;2023-02-28T07:58:23;3.90;99.90
12833;DHT22;6483;51.310;4.462;2023-02-28T08:00:50;4.00;99.90
12833;DHT22;6483;51.310;4.462;2023-02-28T08:03:17;4.10;99.90
12833;DHT22;6483;51.310;4.462;2023-02-28T08:05:43;4.20;99.90
12833;DHT22;6483;51.310;4.462;2023-02-28T08:08:09;4.30;99.90
12833;DHT22;6483;51.310;4.462;2023-02-28T08:10:35;4.30;99.90
12833;DHT22;6483;51.310;4.462;2023-02-28T08:13:00;4.40;99.90
12833;DHT22;6483;51.310;4.462;2023-02-28T08:15:27;4.50;99.90
12833;DHT22;6483;51.310;4.462;2023-02-28T08:17:52;4.60;99.90
12833;DHT22;6483;51.310;4.462;2023-02-28T08:20:18;4.70;99.90
12833;DHT22;6483;51.310;4.462;2023-02-28T08:22:44;4.80;99.90
12833;DHT22;6483;51.310;4.462;2023-02-28T08:25:12;5.00;99.90
12833;DHT22;6483;51.310;4.462;2023-02-28T08:27:38;5.10;99.90
12833;DHT22;6483;51.310;4.462;2023-02-28T08:30:08;5.30;99.90
12833;DHT22;6483;51.310;4.462;2023-02-28T08:32:36;5.40;99.90
12833;DHT22;6483;51.310;4.462;2023-02-28T08:35:02;5.70;99.80
12833;DHT22;6483;51.310;4.462;2023-02-28T08:37:28;5.90;97.70
12833;DHT22;6483;51.310;4.462;2023-02-28T08:39:54;6.20;91.80
12833;DHT22;6483;51.310;4.462;2023-02-28T08:42:20;6.40;86.10
12833;DHT22;6483;51.310;4.462;2023-02-28T08:44:48;6.60;74.70
12833;DHT22;6483;51.310;4.462;2023-02-28T08:47:14;6.80;68.10
12833;DHT22;6483;51.310;4.462;2023-02-28T08:49:40;7.10;59.20
12833;DHT22;6483;51.310;4.462;2023-02-28T08:52:07;7.20;50.20
12833;DHT22;6483;51.310;4.462;2023-02-28T08:54:36;6.80;34.30
12833;DHT22;6483;51.310;4.462;2023-02-28T08:57:03;6.80;37.40
12833;DHT22;6483;51.310;4.462;2023-02-28T08:59:29;6.60;28.60
12833;DHT22;6483;51.310;4.462;2023-02-28T09:01:54;6.40;24.30
12833;DHT22;6483;51.310;4.462;2023-02-28T09:04:20;6.30;27.60
12833;DHT22;6483;51.310;4.462;2023-02-28T09:06:48;6.40;24.90
12833;DHT22;6483;51.310;4.462;2023-02-28T09:09:17;5.90;17.70
12833;DHT22;6483;51.310;4.462;2023-02-28T09:11:46;6.10;23.40
12833;DHT22;6483;51.310;4.462;2023-02-28T09:14:11;6.30;19.10
12833;DHT22;6483;51.310;4.462;2023-02-28T09:16:37;6.80;16.20
12833;DHT22;6483;51.310;4.462;2023-02-28T09:19:06;7.40;17.90
12833;DHT22;6483;51.310;4.462;2023-02-28T09:21:31;8.00;14.30
12833;DHT22;6483;51.310;4.462;2023-02-28T09:23:58;6.90;4.40
12833;DHT22;6483;51.310;4.462;2023-02-28T09:26:27;9.20;1.00
12833;DHT22;6483;51.310;4.462;2023-02-28T09:28:54;9.60;1.00
12833;DHT22;6483;51.310;4.462;2023-02-28T09:31:24;10.20;1.00
12833;DHT22;6483;51.310;4.462;2023-02-28T09:33:51;10.50;1.00
12833;DHT22;6483;51.310;4.462;2023-02-28T09:36:21;10.10;1.00
12833;DHT22;6483;51.310;4.462;2023-02-28T09:38:48;10.40;1.00
12833;DHT22;6483;51.310;4.462;2023-02-28T09:41:20;10.80;1.00
12833;DHT22;6483;51.310;4.462;2023-02-28T09:43:56;11.30;1.00
12833;DHT22;6483;51.310;4.462;2023-02-28T09:46:40;12.00;1.00
12833;DHT22;6483;51.310;4.462;2023-02-28T09:49:12;12.60;1.00
12833;DHT22;6483;51.310;4.462;2023-02-28T09:54:32;13.40;1.00
12833;DHT22;6483;51.310;4.462;2023-02-28T10:02:53;12.00;1.00
12833;DHT22;6483;51.310;4.462;2023-02-28T10:05:27;11.30;1.00
12833;DHT22;6483;51.310;4.462;2023-02-28T10:08:17;11.00;1.00
12833;DHT22;6483;51.310;4.462;2023-02-28T10:10:49;11.50;1.00
12833;DHT22;6483;51.310;4.462;2023-02-28T10:13:55;12.20;1.00
12833;DHT22;6483;51.310;4.462;2023-02-28T10:20:17;13.70;1.00
12833;DHT22;6483;51.310;4.462;2023-02-28T10:25:32;16.30;1.00
12833;DHT22;6483;51.310;4.462;2023-02-28T10:28:13;17.60;1.00
12833;DHT22;6483;51.310;4.462;2023-02-28T10:30:48;18.40;1.00
12833;DHT22;6483;51.310;4.462;2023-02-28T10:33:30;18.40;1.00
12833;DHT22;6483;51.310;4.462;2023-02-28T10:35:56;18.30;1.00
12833;DHT22;6483;51.310;4.462;2023-02-28T10:38:43;15.80;1.00
12833;DHT22;6483;51.310;4.462;2023-02-28T10:44:23;15.40;1.00
12833;DHT22;6483;51.310;4.462;2023-02-28T10:46:52;14.80;1.00
12833;DHT22;6483;51.310;4.462;2023-02-28T10:49:26;16.40;1.00
12833;DHT22;6483;51.310;4.462;2023-02-28T10:52:00;18.10;1.00
12833;DHT22;6483;51.310;4.462;2023-02-28T10:54:37;19.60;1.00
12833;DHT22;6483;51.310;4.462;2023-02-28T10:57:22;20.30;1.00
12833;DHT22;6483;51.310;4.462;2023-02-28T11:00:05;20.20;1.00
12833;DHT22;6483;51.310;4.462;2023-02-28T11:02:35;19.00;1.00
12833;DHT22;6483;51.310;4.462;2023-02-28T11:05:35;18.90;1.00
12833;DHT22;6483;51.310;4.462;2023-02-28T11:08:16;18.90;1.00
12833;DHT22;6483;51.310;4.462;2023-02-28T11:10:56;20.00;1.00
12833;DHT22;6483;51.310;4.462;2023-02-28T11:13:35;20.20;1.00
12833;DHT22;6483;51.310;4.462;2023-02-28T11:16:09;20.70;1.00
12833;DHT22;6483;51.310;4.462;2023-02-28T11:21:08;21.30;1.00
12833;DHT22;6483;51.310;4.462;2023-02-28T11:23:37;20.30;1.00
12833;DHT22;6483;51.310;4.462;2023-02-28T11:26:05;19.80;1.00
12833;DHT22;6483;51.310;4.462;2023-02-28T11:28:39;20.00;1.00
12833;DHT22;6483;51.310;4.462;2023-02-28T11:31:17;20.70;1.00
12833;DHT22;6483;51.310;4.462;2023-02-28T11:33:55;19.80;1.00
12833;DHT22;6483;51.310;4.462;2023-02-28T11:36:31;20.00;1.00
12833;DHT22;6483;51.310;4.462;2023-02-28T11:39:09;20.20;1.00
12833;DHT22;6483;51.310;4.462;2023-02-28T11:44:39;20.30;1.00
12833;DHT22;6483;51.310;4.462;2023-02-28T11:50:21;20.20;1.00
12833;DHT22;6483;51.310;4.462;2023-02-28T11:53:01;20.80;1.00
12833;DHT22;6483;51.310;4.462;2023-02-28T11:55:48;20.60;1.00
12833;DHT22;6483;51.310;4.462;2023-02-28T11:58:37;21.10;1.00
12833;DHT22;6483;51.310;4.462;2023-02-28T12:04:49;20.80;1.00
12833;DHT22;6483;51.310;4.462;2023-02-28T12:13:39;23.00;1.00
12833;DHT22;6483;51.310;4.462;2023-02-28T12:16:29;23.80;1.00
12833;DHT22;6483;51.310;4.462;2023-02-28T12:20:08;24.90;1.00
12833;DHT22;6483;51.310;4.462;2023-02-28T12:22:37;26.10;1.00
12833;DHT22;6483;51.310;4.462;2023-02-28T12:28:02;23.90;1.00
12833;DHT22;6483;51.310;4.462;2023-02-28T12:30:34;24.40;1.00
12833;DHT22;6483;51.310;4.462;2023-02-28T12:33:12;23.70;1.00
12833;DHT22;6483;51.310;4.462;2023-02-28T12:35:56;24.60;1.00
12833;DHT22;6483;51.310;4.462;2023-02-28T12:38:42;25.70;1.00
12833;DHT22;6483;51.310;4.462;2023-02-28T12:41:13;25.80;1.00
12833;DHT22;6483;51.310;4.462;2023-02-28T12:44:15;24.10;1.00
12833;DHT22;6483;51.310;4.462;2023-02-28T12:46:47;21.30;1.00
12833;DHT22;6483;51.310;4.462;2023-02-28T12:52:08;20.00;1.00
12833;DHT22;6483;51.310;4.462;2023-02-28T12:55:00;20.30;1.00
12833;DHT22;6483;51.310;4.462;2023-02-28T13:00:38;21.80;1.00
12833;DHT22;6483;51.310;4.462;2023-02-28T13:11:30;21.50;1.00
12833;DHT22;6483;51.310;4.462;2023-02-28T13:14:05;21.70;1.00
12833;DHT22;6483;51.310;4.462;2023-02-28T13:16:54;21.70;1.00
12833;DHT22;6483;51.310;4.462;2023-02-28T13:19:22;20.10;1.00
12833;DHT22;6483;51.310;4.462;2023-02-28T13:21:51;19.40;1.00
12833;DHT22;6483;51.310;4.462;2023-02-28T13:24:42;20.40;1.00
12833;DHT22;6483;51.310;4.462;2023-02-28T13:27:19;21.90;1.00
12833;DHT22;6483;51.310;4.462;2023-02-28T13:29:53;22.50;1.00
12833;DHT22;6483;51.310;4.462;2023-02-28T13:32:39;23.70;1.00
12833;DHT22;6483;51.310;4.462;2023-02-28T13:37:42;24.70;1.00
12833;DHT22;6483;51.310;4.462;2023-02-28T13:45:24;24.70;1.00
12833;DHT22;6483;51.310;4.462;2023-02-28T13:48:19;23.90;1.00
12833;DHT22;6483;51.310;4.462;2023-02-28T13:50:49;23.50;1.00
12833;DHT22;6483;51.310;4.462;2023-02-28T14:06:29;25.10;1.00
12833;DHT22;6483;51.310;4.462;2023-02-28T14:09:01;26.00;1.00
12833;DHT22;6483;51.310;4.462;2023-02-28T14:11:36;26.60;1.00
12833;DHT22;6483;51.310;4.462;2023-02-28T14:14:03;26.40;1.00
12833;DHT22;6483;51.310;4.462;2023-02-28T14:16:45;25.40;1.00
12833;DHT22;6483;51.310;4.462;2023-02-28T14:19:24;26.20;1.00
12833;DHT22;6483;51.310;4.462;2023-02-28T14:21:53;26.40;1.00
12833;DHT22;6483;51.310;4.462;2023-02-28T14:27:45;23.60;1.00
12833;DHT22;6483;51.310;4.462;2023-02-28T14:32:57;25.50;1.00
12833;DHT22;6483;51.310;4.462;2023-02-28T14:41:24;25.10;1.00
12833;DHT22;6483;51.310;4.462;2023-02-28T14:43:52;24.50;1.00
12833;DHT22;6483;51.310;4.462;2023-02-28T14:46:18;25.00;1.00
12833;DHT22;6483;51.310;4.462;2023-02-28T14:48:46;25.20;1.00
12833;DHT22;6483;51.310;4.462;2023-02-28T14:51:19;24.90;1.00
12833;DHT22;6483;51.310;4.462;2023-02-28T14:53:52;25.60;1.00
12833;DHT22;6483;51.310;4.462;2023-02-28T14:56:44;25.30;1.00
12833;DHT22;6483;51.310;4.462;2023-02-28T14:59:26;25.90;1.00
12833;DHT22;6483;51.310;4.462;2023-02-28T15:01:52;24.60;1.00
12833;DHT22;6483;51.310;4.462;2023-02-28T15:04:32;24.40;1.00
12833;DHT22;6483;51.310;4.462;2023-02-28T15:07:13;24.90;1.00
12833;DHT22;6483;51.310;4.462;2023-02-28T15:09:40;24.50;1.00
12833;DHT22;6483;51.310;4.462;2023-02-28T15:12:07;24.20;1.00
12833;DHT22;6483;51.310;4.462;2023-02-28T15:14:35;24.00;1.00
12833;DHT22;6483;51.310;4.462;2023-02-28T15:17:07;22.90;1.00
12833;DHT22;6483;51.310;4.462;2023-02-28T15:19:36;20.70;1.00
12833;DHT22;6483;51.310;4.462;2023-02-28T15:22:15;19.20;1.00
12833;DHT22;6483;51.310;4.462;2023-02-28T15:24:53;18.00;1.00
12833;DHT22;6483;51.310;4.462;2023-02-28T15:27:25;17.70;1.00
12833;DHT22;6483;51.310;4.462;2023-02-28T15:29:58;17.40;1.00
12833;DHT22;6483;51.310;4.462;2023-02-28T15:32:45;17.70;1.00
12833;DHT22;6483;51.310;4.462;2023-02-28T15:35:27;18.00;1.00
12833;DHT22;6483;51.310;4.462;2023-02-28T15:37:54;17.30;1.00
12833;DHT22;6483;51.310;4.462;2023-02-28T15:40:28;17.80;1.00
12833;DHT22;6483;51.310;4.462;2023-02-28T15:43:18;17.60;1.00
12833;DHT22;6483;51.310;4.462;2023-02-28T15:46:03;16.90;1.00
12833;DHT22;6483;51.310;4.462;2023-02-28T15:48:38;15.60;1.00
12833;DHT22;6483;51.310;4.462;2023-02-28T15:53:58;14.60;1.00
12833;DHT22;6483;51.310;4.462;2023-02-28T15:56:43;14.00;1.00
12833;DHT22;6483;51.310;4.462;2023-02-28T15:59:16;14.00;1.00
12833;DHT22;6483;51.310;4.462;2023-02-28T16:01:43;14.30;1.00
12833;DHT22;6483;51.310;4.462;2023-02-28T16:04:21;15.00;1.00
12833;DHT22;6483;51.310;4.462;2023-02-28T16:09:17;15.10;1.00
12833;DHT22;6483;51.310;4.462;2023-02-28T16:11:48;14.20;1.00
12833;DHT22;6483;51.310;4.462;2023-02-28T16:14:23;13.10;1.00
12833;DHT22;6483;51.310;4.462;2023-02-28T16:16:52;12.00;1.00
12833;DHT22;6483;51.310;4.462;2023-02-28T16:19:18;10.90;1.00
12833;DHT22;6483;51.310;4.462;2023-02-28T16:21:45;10.90;1.00
12833;DHT22;6483;51.310;4.462;2023-02-28T16:24:11;10.50;1.00
12833;DHT22;6483;51.310;4.462;2023-02-28T16:26:39;10.00;1.00
12833;DHT22;6483;51.310;4.462;2023-02-28T16:29:09;9.60;1.00
12833;DHT22;6483;51.310;4.462;2023-02-28T16:31:38;9.20;1.00
12833;DHT22;6483;51.310;4.462;2023-02-28T16:34:05;8.70;1.00
12833;DHT22;6483;51.310;4.462;2023-02-28T16:36:31;8.30;1.00
12833;DHT22;6483;51.310;4.462;2023-02-28T16:38:56;7.90;1.00
12833;DHT22;6483;51.310;4.462;2023-02-28T16:41:25;7.50;1.00
12833;DHT22;6483;51.310;4.462;2023-02-28T16:43:55;7.20;1.00
12833;DHT22;6483;51.310;4.462;2023-02-28T16:46:34;7.00;1.00
12833;DHT22;6483;51.310;4.462;2023-02-28T16:49:02;6.80;1.00
12833;DHT22;6483;51.310;4.462;2023-02-28T16:51:28;6.70;1.00
12833;DHT22;6483;51.310;4.462;2023-02-28T16:53:57;6.60;1.00
12833;DHT22;6483;51.310;4.462;2023-02-28T16:56:26;6.50;1.00
12833;DHT22;6483;51.310;4.462;2023-02-28T16:58:59;6.30;1.00
12833;DHT22;6483;51.310;4.462;2023-02-28T17:01:25;6.20;1.00
12833;DHT22;6483;51.310;4.462;2023-02-28T17:03:55;5.90;1.00
12833;DHT22;6483;51.310;4.462;2023-02-28T17:06:27;5.60;1.00
12833;DHT22;6483;51.310;4.462;2023-02-28T17:08:58;5.50;1.00
12833;DHT22;6483;51.310;4.462;2023-02-28T17:11:27;5.30;1.00
12833;DHT22;6483;51.310;4.462;2023-02-28T17:13:56;5.00;1.00
12833;DHT22;6483;51.310;4.462;2023-02-28T17:16:29;4.80;1.00
12833;DHT22;6483;51.310;4.462;2023-02-28T17:19:01;4.60;1.00
12833;DHT22;6483;51.310;4.462;2023-02-28T17:21:28;4.50;1.00
12833;DHT22;6483;51.310;4.462;2023-02-28T17:23:54;4.30;1.00
12833;DHT22;6483;51.310;4.462;2023-02-28T17:26:21;4.10;1.00
12833;DHT22;6483;51.310;4.462;2023-02-28T17:28:48;3.90;1.00
12833;DHT22;6483;51.310;4.462;2023-02-28T17:31:14;3.80;1.00
12833;DHT22;6483;51.310;4.462;2023-02-28T17:33:40;3.70;1.00
12833;DHT22;6483;51.310;4.462;2023-02-28T17:36:10;3.60;1.00
12833;DHT22;6483;51.310;4.462;2023-02-28T17:38:38;3.50;1.00
12833;DHT22;6483;51.310;4.462;2023-02-28T17:41:09;3.30;1.60
12833;DHT22;6483;51.310;4.462;2023-02-28T17:43:35;3.30;1.90
12833;DHT22;6483;51.310;4.462;2023-02-28T17:46:01;3.10;5.90
12833;DHT22;6483;51.310;4.462;2023-02-28T17:48:27;3.10;6.00
12833;DHT22;6483;51.310;4.462;2023-02-28T17:51:00;3.00;5.90
12833;DHT22;6483;51.310;4.462;2023-02-28T17:53:25;2.90;7.60
12833;DHT22;6483;51.310;4.462;2023-02-28T17:55:52;2.80;8.50
12833;DHT22;6483;51.310;4.462;2023-02-28T17:58:19;4.60;10.50
12833;DHT22;6483;51.310;4.462;2023-02-28T18:00:48;4.20;10.60
12833;DHT22;6483;51.310;4.462;2023-02-28T18:03:19;2.50;11.20
12833;DHT22;6483;51.310;4.462;2023-02-28T18:05:52;3.80;13.80
12833;DHT22;6483;51.310;4.462;2023-02-28T18:08:18;2.40;13.80
12833;DHT22;6483;51.310;4.462;2023-02-28T18:10:43;2.30;14.10
12833;DHT22;6483;51.310;4.462;2023-02-28T18:13:09;2.20;16.60
12833;DHT22;6483;51.310;4.462;2023-02-28T18:15:37;2.10;20.60
12833;DHT22;6483;51.310;4.462;2023-02-28T18:18:03;2.00;20.40
12833;DHT22;6483;51.310;4.462;2023-02-28T18:20:33;1.90;22.20
12833;DHT22;6483;51.310;4.462;2023-02-28T18:23:02;2.00;22.40
12833;DHT22;6483;51.310;4.462;2023-02-28T18:25:28;1.60;23.70
12833;DHT22;6483;51.310;4.462;2023-02-28T18:27:55;2.90;25.30
12833;DHT22;6483;51.310;4.462;2023-02-28T18:30:30;1.50;25.80
12833;DHT22;6483;51.310;4.462;2023-02-28T18:33:01;1.30;26.10
12833;DHT22;6483;51.310;4.462;2023-02-28T18:35:28;1.30;30.40
12833;DHT22;6483;51.310;4.462;2023-02-28T18:40:27;1.20;38.50
12833;DHT22;6483;51.310;4.462;2023-02-28T18:42:53;1.10;40.80
12833;DHT22;6483;51.310;4.462;2023-02-28T18:45:18;1.10;40.90
12833;DHT22;6483;51.310;4.462;2023-02-28T18:47:44;1.90;41.80
12833;DHT22;6483;51.310;4.462;2023-02-28T18:50:10;0.80;41.10